Time;durP1;ratioP1;P1;durP2;ratioP2;P2;SDS_P1;SDS_P2;PMS_P1;PMS_P2;Temp;Humidity;BMP_temperature;BMP_pressure;BME280_temperature;BME280_humidity;BME280_pressure;Samples;Min_cycle;Max_cycle;Signal;HPM_P1;HPM_P2
2021/11/10 00:00:13;;;;;;;2.67;1.93;;;;;;;6.11;84.98;101865.72;5083193;28;20286;-75
2021/11/10 00:02:39;;;;;;;2.43;1.67;;;;;;;6.12;85.09;101857.09;5083832;28;20263;-75
2021/11/10 00:05:07;;;;;;;2.57;1.70;;;;;;;6.10;84.85;101853.59;5083510;28;20736;-75
2021/11/10 00:07:35;;;;;;;3.47;1.83;;;;;;;6.08;84.73;101839.72;5083242;28;20705;-75
2021/11/10 00:10:01;;;;;;;3.37;1.90;;;;;;;6.06;84.18;101851.78;5083184;28;20207;-76
2021/11/10 00:12:28;;;;;;;3.83;2.10;;;;;;;6.06;84.63;101849.19;5082713;28;20320;-75
2021/11/10 00:14:54;;;;;;;2.27;1.63;;;;;;;6.01;84.62;101853.41;5082573;28;20675;-75
2021/11/10 00:17:21;;;;;;;2.10;1.63;;;;;;;6.01;85.04;101842.19;5083057;28;20235;-75
2021/11/10 00:19:47;;;;;;;2.50;1.70;;;;;;;6.03;84.36;101843.94;5083211;28;20215;-76
2021/11/10 00:22:13;;;;;;;1.90;1.67;;;;;;;6.08;84.45;101865.66;5082801;28;20865;-75
2021/11/10 00:24:41;;;;;;;3.10;1.53;;;;;;;6.04;84.67;101860.38;5082603;28;20846;-75
2021/11/10 00:27:07;;;;;;;5.03;1.67;;;;;;;6.04;84.58;101843.09;5083052;28;20228;-75
2021/11/10 00:29:34;;;;;;;2.30;2.10;;;;;;;5.97;85.57;101821.38;5082600;28;21170;-75
2021/11/10 00:32:00;;;;;;;2.20;1.83;;;;;;;5.94;85.31;101810.00;5083061;28;20411;-75
2021/11/10 00:34:27;;;;;;;3.63;2.63;;;;;;;5.91;85.04;101805.66;5083096;28;20561;-76
2021/11/10 00:36:53;;;;;;;2.67;1.70;;;;;;;5.90;85.90;101785.75;5082735;28;20261;-75
2021/11/10 00:39:19;;;;;;;3.00;1.67;;;;;;;5.93;85.52;101792.72;5082538;28;20627;-77
2021/11/10 00:41:47;;;;;;;2.77;2.00;;;;;;;5.85;85.15;101800.31;5083042;28;20203;-78
2021/11/10 00:44:13;;;;;;;2.03;1.87;;;;;;;5.78;85.35;101782.88;5082018;28;20199;-78
2021/11/10 00:46:40;;;;;;;2.27;1.70;;;;;;;5.87;85.39;101792.59;5083029;28;20250;-77
2021/11/10 00:49:06;;;;;;;2.90;2.07;;;;;;;5.79;85.65;101784.66;5082946;28;20204;-75
2021/11/10 00:51:32;;;;;;;3.90;1.80;;;;;;;5.77;86.30;101768.19;5082455;28;20200;-76
2021/11/10 00:53:59;;;;;;;3.50;2.10;;;;;;;5.78;85.68;101767.34;5082240;28;20593;-75
2021/11/10 00:56:26;;;;;;;4.37;2.40;;;;;;;5.75;86.07;101762.09;5082678;28;20582;-75
2021/11/10 00:58:54;;;;;;;2.27;2.07;;;;;;;5.81;86.31;101777.78;5082105;28;20265;-76
2021/11/10 01:01:20;;;;;;;2.70;2.00;;;;;;;5.74;86.12;101763.78;5082624;28;20293;-77
2021/11/10 01:03:47;;;;;;;4.63;2.53;;;;;;;5.76;86.01;101775.06;5082594;28;20268;-78
2021/11/10 01:06:13;;;;;;;2.43;2.13;;;;;;;5.76;85.75;101766.44;5082820;28;20200;-78
2021/11/10 01:08:39;;;;;;;3.80;2.20;;;;;;;5.75;86.36;101746.56;5082192;28;20695;-78
2021/11/10 01:11:06;;;;;;;4.07;2.27;;;;;;;5.80;85.51;101744.06;5082384;28;20762;-75
2021/11/10 01:13:33;;;;;;;4.73;2.37;;;;;;;5.73;86.05;101746.53;5081933;28;20702;-76
2021/11/10 01:16:00;;;;;;;3.60;2.20;;;;;;;5.78;85.36;101756.97;5082555;28;20216;-76
2021/11/10 01:18:27;;;;;;;6.60;2.17;;;;;;;5.73;86.46;101730.97;5082076;28;20983;-75
2021/11/10 01:20:54;;;;;;;4.67;2.20;;;;;;;5.73;86.81;101724.94;5082638;28;20308;-75
2021/11/10 01:23:20;;;;;;;2.90;2.07;;;;;;;5.75;86.40;101725.84;5082365;28;20227;-75
2021/11/10 01:25:47;;;;;;;3.43;2.13;;;;;;;5.85;85.63;101726.91;5082202;28;20314;-78
2021/11/10 01:28:13;;;;;;;4.03;1.77;;;;;;;5.81;85.85;101735.44;5085720;28;20681;-77
2021/11/10 01:30:40;;;;;;;3.77;2.13;;;;;;;5.82;85.68;101734.59;5086919;28;20633;-78
2021/11/10 01:33:08;;;;;;;3.67;2.07;;;;;;;5.77;86.23;101730.19;5086726;28;20313;-77
2021/11/10 01:35:34;;;;;;;4.90;2.10;;;;;;;5.76;85.45;101724.97;5087457;28;20210;-78
2021/11/10 01:38:01;;;;;;;2.87;2.23;;;;;;;5.77;85.54;101726.75;5086358;28;20584;-76
2021/11/10 01:40:28;;;;;;;4.87;1.97;;;;;;;5.74;86.60;101721.47;5085116;28;20850;-75
2021/11/10 01:42:57;;;;;;;5.10;2.00;;;;;;;5.74;86.16;101724.06;5085526;28;20223;-75
2021/11/10 01:45:23;;;;;;;4.17;2.03;;;;;;;5.74;86.60;101706.78;5085769;28;20208;-75
2021/11/10 01:47:50;;;;;;;2.43;1.80;;;;;;;5.77;86.15;101716.38;5084823;28;20288;-75
2021/11/10 01:50:19;;;;;;;2.33;2.20;;;;;;;5.76;85.83;101717.19;5085594;28;20206;-76
2021/11/10 01:52:47;;;;;;;4.33;2.20;;;;;;;5.72;85.53;101712.81;5085905;28;20488;-75
2021/11/10 01:55:13;;;;;;;3.10;2.00;;;;;;;5.74;85.91;101713.72;5086120;28;20257;-76
2021/11/10 01:57:40;;;;;;;3.50;2.67;;;;;;;5.69;86.43;101708.44;5085495;28;20597;-75
2021/11/10 02:00:12;;;;;;;2.10;1.70;;;;;;;5.69;86.02;101708.44;5084808;28;20243;-75
2021/11/10 02:02:41;;;;;;;2.47;2.20;;;;;;;5.61;86.10;101707.41;5085956;28;20275;-76
2021/11/10 02:05:08;;;;;;;4.40;2.43;;;;;;;5.64;86.50;101689.31;5085265;28;20646;-74
2021/11/10 02:07:36;;;;;;;6.57;1.93;;;;;;;5.63;86.58;101692.75;5085631;28;20584;-75
2021/11/10 02:10:04;;;;;;;3.43;1.60;;;;;;;5.63;86.10;101694.47;5085417;28;20320;-75
2021/11/10 02:12:32;;;;;;;6.93;2.27;;;;;;;5.65;85.89;101700.53;5085163;28;20223;-75
2021/11/10 02:14:59;;;;;;;7.83;2.00;;;;;;;5.62;85.06;101740.22;5085715;28;20260;-75
2021/11/10 02:17:25;;;;;;;3.13;2.10;;;;;;;5.53;84.81;101748.66;5085240;28;20207;-75
2021/11/10 02:19:52;;;;;;;3.83;2.70;;;;;;;5.53;85.44;101711.50;5085036;28;20231;-75
2021/11/10 02:22:21;;;;;;;4.43;2.43;;;;;;;5.51;85.89;101708.91;5085709;28;20280;-75
2021/11/10 02:24:48;;;;;;;2.80;1.57;;;;;;;5.52;86.07;101697.69;5085697;28;20198;-75
2021/11/10 02:27:17;;;;;;;2.57;1.77;;;;;;;5.57;85.35;101705.59;5085487;28;20206;-75
2021/11/10 02:29:44;;;;;;;3.93;2.10;;;;;;;5.53;84.50;101727.03;5084829;28;20219;-75
2021/11/10 02:32:12;;;;;;;3.37;1.93;;;;;;;5.48;84.13;101739.91;5084673;28;20731;-75
2021/11/10 02:34:39;;;;;;;2.77;2.07;;;;;;;5.40;84.60;101745.75;5085600;28;20231;-75
2021/11/10 02:37:05;;;;;;;4.60;2.30;;;;;;;5.33;84.35;101745.63;5085450;28;20697;-75
2021/11/10 02:39:36;;;;;;;2.83;2.50;;;;;;;5.28;85.02;101739.44;5083855;28;20249;-78
2021/11/10 02:42:03;;;;;;;2.90;2.17;;;;;;;5.20;85.63;101717.69;5085074;28;20632;-77
2021/11/10 02:44:29;;;;;;;2.87;1.87;;;;;;;5.18;84.86;101715.03;5085191;28;20231;-77
2021/11/10 02:46:55;;;;;;;2.27;1.97;;;;;;;5.08;84.74;101732.91;5085268;28;20206;-77
2021/11/10 02:49:22;;;;;;;2.87;1.90;;;;;;;5.04;85.14;101726.78;5084863;28;20239;-77
2021/11/10 02:51:58;;;;;;;2.87;1.83;;;;;;;5.01;85.05;101708.59;5085118;28;20269;-77
2021/11/10 02:54:25;;;;;;;2.20;2.00;;;;;;;5.00;85.04;101703.41;5085160;28;20223;-77
2021/11/10 02:56:53;;;;;;;3.43;1.97;;;;;;;4.95;85.73;101695.50;5084656;28;20218;-77
2021/11/10 02:59:20;;;;;;;3.00;1.93;;;;;;;4.96;85.96;101685.19;5084712;28;20242;-77
2021/11/10 03:01:46;;;;;;;5.30;2.10;;;;;;;4.95;86.06;101669.63;5085105;28;20234;-77
2021/11/10 03:04:20;;;;;;;4.80;2.20;;;;;;;4.92;86.37;101669.56;5085295;28;20260;-78
2021/11/10 03:06:47;;;;;;;1.80;1.70;;;;;;;4.91;86.10;101671.25;5085035;28;20230;-77
2021/11/10 03:09:16;;;;;;;4.60;3.33;;;;;;;4.57;86.58;101670.44;5084436;28;20293;-78
2021/11/10 03:11:43;;;;;;;4.60;4.20;;;;;;;4.34;87.43;101645.69;5084791;28;21007;-75
2021/11/10 03:14:11;;;;;;;6.20;4.93;;;;;;;4.12;88.05;101608.97;5084495;28;20230;-77
2021/11/10 03:16:37;;;;;;;5.47;4.97;;;;;;;4.02;88.66;101581.13;5084769;28;20580;-77
2021/11/10 03:19:04;;;;;;;5.93;5.37;;;;;;;4.09;88.82;101579.59;5084293;28;20273;-77
2021/11/10 03:21:30;;;;;;;5.70;5.00;;;;;;;3.96;89.22;101581.88;5084941;28;20210;-77
2021/11/10 03:23:56;;;;;;;6.07;5.47;;;;;;;4.03;89.86;101562.22;5084321;28;20287;-76
2021/11/10 03:26:23;;;;;;;5.83;5.30;;;;;;;3.93;90.08;101548.19;5084497;28;20240;-78
2021/11/10 03:28:49;;;;;;;6.70;5.57;;;;;;;3.84;90.49;101545.34;5084130;28;20211;-77
2021/11/10 03:31:17;;;;;;;6.13;5.53;;;;;;;3.89;90.20;101550.66;5084314;28;20700;-77
2021/11/10 03:33:44;;;;;;;7.53;6.50;;;;;;;3.86;89.72;101563.47;5084485;28;20770;-77
2021/11/10 03:36:11;;;;;;;8.30;5.70;;;;;;;3.92;90.16;101550.72;5084247;28;20197;-77
2021/11/10 03:38:37;;;;;;;5.80;5.30;;;;;;;3.97;89.90;101555.19;5083977;28;20680;-77
2021/11/10 03:41:04;;;;;;;8.57;5.60;;;;;;;3.90;90.21;101554.97;5084353;28;20584;-77
2021/11/10 03:43:30;;;;;;;9.53;5.23;;;;;;;3.90;90.45;101534.31;5084678;28;20521;-77
2021/11/10 03:45:56;;;;;;;7.23;5.70;;;;;;;4.02;90.69;101533.75;5084506;28;20211;-77
2021/11/10 03:48:24;;;;;;;6.47;5.87;;;;;;;4.06;90.46;101545.91;5083544;28;20467;-77
2021/11/10 03:50:50;;;;;;;10.63;5.77;;;;;;;4.06;89.83;101549.34;5084034;28;20218;-77
2021/11/10 03:53:17;;;;;;;5.27;4.73;;;;;;;4.17;89.74;101554.81;5083988;28;20228;-77
2021/11/10 03:55:43;;;;;;;5.90;5.30;;;;;;;4.22;89.47;101575.59;5084259;28;20516;-77
2021/11/10 03:58:11;;;;;;;4.67;4.27;;;;;;;4.18;89.16;101577.22;5083378;28;20217;-77
2021/11/10 04:00:38;;;;;;;8.17;4.10;;;;;;;4.25;88.29;101610.16;5083970;28;20203;-77
2021/11/10 04:03:04;;;;;;;5.67;4.27;;;;;;;4.27;88.42;101624.00;5083955;28;20224;-77
2021/11/10 04:05:32;;;;;;;4.57;4.17;;;;;;;4.30;88.36;101624.09;5083660;28;20202;-77
2021/11/10 04:07:58;;;;;;;5.23;3.90;;;;;;;4.35;88.33;101621.59;5083772;28;20204;-76
2021/11/10 04:10:25;;;;;;;3.70;3.27;;;;;;;4.36;88.15;101628.50;5082982;28;20215;-77
2021/11/10 04:12:51;;;;;;;4.90;3.17;;;;;;;4.40;87.64;101630.38;5083808;28;20280;-75
2021/11/10 04:15:18;;;;;;;3.00;2.80;;;;;;;4.39;87.41;101644.13;5083519;28;20222;-76
2021/11/10 04:17:44;;;;;;;3.63;2.50;;;;;;;4.40;87.84;101644.97;5083430;28;20205;-77
2021/11/10 04:20:11;;;;;;;3.33;2.10;;;;;;;4.40;88.36;101621.72;5082881;28;20247;-76
2021/11/10 04:22:39;;;;;;;4.73;2.40;;;;;;;4.45;88.25;101613.25;5082771;28;20261;-76
2021/11/10 04:25:06;;;;;;;4.83;2.30;;;;;;;4.46;88.29;101611.53;5083644;28;20858;-76
2021/11/10 04:27:33;;;;;;;5.13;2.30;;;;;;;4.41;87.63;101623.47;5083045;28;20228;-76
2021/11/10 04:29:59;;;;;;;2.20;2.00;;;;;;;4.38;87.26;101637.22;5082862;28;20238;-77
2021/11/10 04:32:25;;;;;;;4.93;1.90;;;;;;;4.33;87.43;101631.03;5083192;28;20228;-76
2021/11/10 04:34:52;;;;;;;4.40;2.03;;;;;;;4.33;87.59;101638.78;5082669;28;20595;-76
2021/11/10 04:37:18;;;;;;;3.90;1.90;;;;;;;4.33;88.14;101616.38;5082811;28;20236;-76
2021/11/10 04:39:46;;;;;;;2.30;2.10;;;;;;;4.36;88.14;101597.50;5082821;28;20803;-76
2021/11/10 04:42:13;;;;;;;7.20;2.30;;;;;;;4.41;88.35;101590.75;5082867;28;20226;-76
2021/11/10 04:44:39;;;;;;;4.20;1.97;;;;;;;4.41;87.86;101602.78;5082557;28;20996;-76
2021/11/10 04:47:06;;;;;;;3.00;1.90;;;;;;;4.39;87.74;101605.34;5082858;28;20296;-76
2021/11/10 04:49:32;;;;;;;4.13;1.80;;;;;;;4.40;88.50;101594.19;5082313;28;20883;-76
2021/11/10 04:52:00;;;;;;;2.20;2.00;;;;;;;4.42;88.66;101591.59;5082440;28;20212;-76
2021/11/10 04:54:30;;;;;;;6.53;1.77;;;;;;;4.46;88.13;101602.09;5083052;28;20283;-76
2021/11/10 04:56:58;;;;;;;2.07;1.87;;;;;;;4.49;87.57;101619.38;5082437;28;20687;-76
2021/11/10 04:59:24;;;;;;;2.87;2.10;;;;;;;4.44;87.42;101627.03;5082787;28;20284;-76
2021/11/10 05:02:02;;;;;;;3.43;2.27;;;;;;;4.47;86.67;101634.84;5082038;28;20263;-76
2021/11/10 05:04:29;;;;;;;3.27;1.80;;;;;;;4.42;86.92;101633.88;5082585;28;20206;-76
2021/11/10 05:06:55;;;;;;;2.57;2.37;;;;;;;4.38;87.34;101624.28;5082321;28;20753;-76
2021/11/10 05:09:22;;;;;;;2.87;1.90;;;;;;;4.41;87.36;101621.75;5082573;28;20206;-77
2021/11/10 05:11:48;;;;;;;2.13;1.93;;;;;;;4.44;86.62;101632.19;5082336;28;20237;-76
2021/11/10 05:14:16;;;;;;;2.73;2.07;;;;;;;4.38;86.72;101635.50;5082258;28;20256;-76
2021/11/10 05:16:43;;;;;;;3.63;2.63;;;;;;;4.33;86.97;101631.03;5082383;28;20901;-77
2021/11/10 05:19:09;;;;;;;2.60;2.00;;;;;;;4.34;87.29;101615.56;5081936;28;20208;-76
2021/11/10 05:21:35;;;;;;;7.87;2.10;;;;;;;4.36;87.56;101607.81;5082215;28;20679;-76
2021/11/10 05:24:02;;;;;;;3.87;1.90;;;;;;;4.28;87.71;101588.66;5082402;28;20223;-77
2021/11/10 05:26:29;;;;;;;3.23;1.73;;;;;;;4.34;87.31;101594.00;5082475;28;20248;-76
2021/11/10 05:28:55;;;;;;;1.67;1.57;;;;;;;4.25;86.76;101610.16;5081615;28;20521;-76
2021/11/10 05:31:23;;;;;;;2.87;1.90;;;;;;;4.21;87.27;101603.16;5082289;28;20271;-77
2021/11/10 05:33:49;;;;;;;2.20;1.90;;;;;;;4.25;87.67;101591.19;5082346;28;20310;-76
2021/11/10 05:36:16;;;;;;;2.27;2.00;;;;;;;4.23;88.35;101575.66;5082192;28;20262;-76
2021/11/10 05:38:43;;;;;;;7.07;1.93;;;;;;;4.26;88.51;101554.16;5081532;28;20688;-76
2021/11/10 05:41:09;;;;;;;2.40;2.20;;;;;;;4.32;88.52;101549.13;5082462;28;20210;-76
2021/11/10 05:43:36;;;;;;;3.83;2.40;;;;;;;4.34;89.07;101547.47;5081674;28;20223;-76
2021/11/10 05:46:04;;;;;;;2.37;2.07;;;;;;;4.08;87.74;101575.25;5081749;28;20231;-76
2021/11/10 05:48:32;;;;;;;4.30;3.40;;;;;;;3.80;88.09;101584.84;5081838;28;20226;-77
2021/11/10 05:50:59;;;;;;;8.40;3.83;;;;;;;3.69;88.07;101571.66;5082208;28;20269;-76
2021/11/10 05:53:26;;;;;;;3.77;3.13;;;;;;;3.69;88.42;101550.13;5082138;28;21081;-76
2021/11/10 05:55:55;;;;;;;5.07;3.10;;;;;;;3.74;88.17;101548.53;5081896;28;20232;-76
2021/11/10 05:58:23;;;;;;;4.33;3.97;;;;;;;3.72;88.11;101557.94;5081249;28;20631;-76
2021/11/10 06:00:50;;;;;;;6.57;4.00;;;;;;;3.78;87.63;101571.88;5082035;28;20270;-76
2021/11/10 06:03:17;;;;;;;6.37;4.30;;;;;;;3.78;87.68;101576.19;5081908;28;20644;-77
2021/11/10 06:05:44;;;;;;;5.60;4.23;;;;;;;3.85;87.61;101577.25;5081923;28;20197;-76
2021/11/10 06:08:11;;;;;;;4.70;3.73;;;;;;;3.91;87.55;101573.09;5081261;28;20680;-76
2021/11/10 06:10:38;;;;;;;6.90;3.57;;;;;;;3.87;87.89;101573.00;5082114;28;20194;-77
2021/11/10 06:13:04;;;;;;;3.63;3.30;;;;;;;3.91;87.71;101573.09;5081770;28;20236;-76
2021/11/10 06:15:30;;;;;;;5.60;4.13;;;;;;;3.91;87.47;101587.72;5085581;28;20278;-76
2021/11/10 06:17:57;;;;;;;5.53;4.50;;;;;;;3.89;87.19;101598.00;5085758;28;20253;-76
2021/11/10 06:20:23;;;;;;;5.23;3.80;;;;;;;3.90;87.46;101598.88;5085281;28;20216;-76
2021/11/10 06:22:51;;;;;;;7.33;5.33;;;;;;;3.93;87.43;101586.94;5085506;28;20238;-76
2021/11/10 06:25:17;;;;;;;6.77;4.93;;;;;;;3.85;87.11;101588.44;5085509;28;20204;-76
2021/11/10 06:27:44;;;;;;;5.70;4.50;;;;;;;3.88;87.27;101591.09;5085438;28;20204;-75
2021/11/10 06:30:11;;;;;;;5.90;4.07;;;;;;;3.87;87.35;101611.72;5083734;28;20219;-76
2021/11/10 06:32:38;;;;;;;4.90;4.50;;;;;;;3.90;88.05;101606.63;5084728;28;20326;-76
2021/11/10 06:35:06;;;;;;;4.67;4.20;;;;;;;3.89;88.14;101604.91;5084867;28;20783;-76
2021/11/10 06:37:32;;;;;;;5.40;4.00;;;;;;;3.93;87.90;101598.97;5084492;28;20230;-75
2021/11/10 06:40:00;;;;;;;3.40;2.80;;;;;;;3.89;88.45;101581.66;5084102;28;20234;-76
2021/11/10 06:42:27;;;;;;;4.53;3.17;;;;;;;3.93;88.54;101580.91;5084482;28;20836;-76
2021/11/10 06:44:55;;;;;;;2.90;2.47;;;;;;;3.91;88.42;101583.44;5084685;28;20204;-76
2021/11/10 06:47:22;;;;;;;2.63;2.43;;;;;;;3.91;87.83;101604.09;5084510;28;20206;-76
2021/11/10 06:49:48;;;;;;;2.73;2.40;;;;;;;3.89;87.28;101613.50;5082005;28;20212;-76
2021/11/10 06:52:14;;;;;;;5.20;2.60;;;;;;;3.83;87.16;101631.44;5084246;28;20298;-77
2021/11/10 06:54:41;;;;;;;4.43;2.27;;;;;;;3.83;87.59;101634.00;5084188;28;20227;-76
2021/11/10 06:57:09;;;;;;;3.37;1.87;;;;;;;3.87;87.69;101638.44;5084214;28;20226;-76
2021/11/10 06:59:35;;;;;;;2.20;1.93;;;;;;;3.87;88.41;101628.09;5083655;28;20268;-76
2021/11/10 07:02:02;;;;;;;3.30;2.40;;;;;;;3.86;89.32;101597.06;5084475;28;20260;-76
2021/11/10 07:04:28;;;;;;;4.07;2.43;;;;;;;3.97;89.18;101574.97;5084638;28;20281;-75
2021/11/10 07:06:54;;;;;;;3.80;2.20;;;;;;;4.00;89.67;101572.47;5084354;28;20619;-76
2021/11/10 07:09:21;;;;;;;3.13;2.23;;;;;;;3.99;89.57;101562.97;5084267;28;20215;-77
2021/11/10 07:11:47;;;;;;;3.03;2.33;;;;;;;4.00;90.11;101548.34;5083606;28;20271;-76
2021/11/10 07:14:15;;;;;;;2.37;2.17;;;;;;;4.06;89.89;101548.50;5083926;28;20234;-76
2021/11/10 07:16:42;;;;;;;3.50;3.10;;;;;;;4.09;89.13;101564.94;5084074;28;20290;-76
2021/11/10 07:19:08;;;;;;;3.83;3.53;;;;;;;4.13;88.44;101594.34;5083471;28;20691;-76
2021/11/10 07:21:35;;;;;;;8.80;6.77;;;;;;;4.13;87.73;101626.22;5083570;28;20511;-76
2021/11/10 07:24:01;;;;;;;15.60;10.17;;;;;;;4.10;87.88;101638.16;5083872;28;20279;-76
2021/11/10 07:26:27;;;;;;;14.10;8.13;;;;;;;4.09;88.20;101626.09;5083445;28;20206;-76
2021/11/10 07:28:54;;;;;;;12.53;8.63;;;;;;;4.10;88.36;101625.25;5083985;28;20339;-77
2021/11/10 07:31:22;;;;;;;7.93;7.13;;;;;;;4.10;88.26;101626.16;5083841;28;20207;-76
2021/11/10 07:33:48;;;;;;;5.80;4.97;;;;;;;4.06;88.92;101620.84;5083372;28;20264;-76
2021/11/10 07:36:14;;;;;;;7.87;5.40;;;;;;;4.10;88.26;101623.56;5083267;28;20303;-77
2021/11/10 07:38:41;;;;;;;5.83;5.23;;;;;;;4.05;88.19;101622.56;5083515;28;20271;-76
2021/11/10 07:41:09;;;;;;;9.73;5.43;;;;;;;4.06;88.82;101613.09;5082768;28;20211;-77
2021/11/10 07:43:35;;;;;;;7.87;5.20;;;;;;;4.10;88.97;101605.47;5083616;28;20221;-76
2021/11/10 07:46:09;;;;;;;5.17;4.57;;;;;;;4.15;88.98;101603.00;5081080;28;20266;-76
2021/11/10 07:48:37;;;;;;;12.60;5.90;;;;;;;4.14;88.97;101601.25;5082725;28;20204;-77
2021/11/10 07:51:04;;;;;;;4.80;4.30;;;;;;;3.79;88.25;101629.59;5082439;28;20537;-76
2021/11/10 07:53:30;;;;;;;9.63;6.33;;;;;;;3.38;88.98;101614.66;5083659;28;20278;-77
2021/11/10 07:55:57;;;;;;;10.47;6.50;;;;;;;3.50;89.40;101592.63;5083583;28;20637;-77
2021/11/10 07:58:23;;;;;;;6.87;5.93;;;;;;;3.69;89.30;101589.72;5083493;28;20224;-77
2021/11/10 08:00:50;;;;;;;6.97;6.37;;;;;;;3.81;89.43;101596.94;5083558;28;20241;-75
2021/11/10 08:03:16;;;;;;;7.43;6.30;;;;;;;3.82;88.80;101613.31;5082952;28;20226;-76
2021/11/10 08:05:44;;;;;;;8.20;7.40;;;;;;;3.88;88.30;101635.00;5082428;28;20522;-75
2021/11/10 08:08:11;;;;;;;6.30;5.80;;;;;;;3.95;88.27;101636.06;5082225;28;20204;-76
2021/11/10 08:10:37;;;;;;;6.70;6.10;;;;;;;4.02;87.98;101637.09;5083046;28;20230;-76
2021/11/10 08:13:05;;;;;;;6.83;5.80;;;;;;;4.10;87.74;101645.91;5082556;28;20253;-76
2021/11/10 08:15:31;;;;;;;6.87;5.80;;;;;;;4.14;87.44;101651.22;5082675;28;20281;-76
2021/11/10 08:17:58;;;;;;;6.40;5.73;;;;;;;4.14;87.97;101646.06;5082262;28;20270;-76
2021/11/10 08:20:24;;;;;;;6.33;5.80;;;;;;;4.15;88.32;101636.59;5082592;28;20231;-76
2021/11/10 08:22:52;;;;;;;6.57;6.00;;;;;;;4.16;88.36;101625.41;5082147;28;20766;-76
2021/11/10 08:25:18;;;;;;;5.87;5.37;;;;;;;4.13;88.10;101633.97;5081715;28;20207;-75
2021/11/10 08:27:46;;;;;;;8.00;7.40;;;;;;;4.28;88.37;101633.50;5081020;28;20443;-75
2021/11/10 08:30:17;;;;;;;6.90;6.30;;;;;;;4.29;87.90;101645.56;5082263;28;20674;-76
2021/11/10 08:32:44;;;;;;;6.40;5.80;;;;;;;4.32;87.72;101657.69;5082984;28;20224;-77
2021/11/10 08:35:11;;;;;;;6.53;5.93;;;;;;;4.35;88.13;101652.63;5082030;28;20714;-79
2021/11/10 08:37:38;;;;;;;5.90;5.43;;;;;;;4.41;87.54;101654.50;5081288;28;20254;-75
2021/11/10 08:40:09;;;;;;;5.30;4.53;;;;;;;4.50;87.23;101662.47;5082051;28;20211;-76
2021/11/10 08:42:35;;;;;;;6.97;6.37;;;;;;;4.55;87.33;101681.56;5082325;28;20311;-76
2021/11/10 08:45:06;;;;;;;6.87;6.37;;;;;;;4.57;87.77;101664.38;5081783;28;20228;-77
2021/11/10 08:47:32;;;;;;;11.10;10.17;;;;;;;4.60;87.93;101655.81;5082950;28;20621;-76
2021/11/10 08:50:01;;;;;;;11.70;9.57;;;;;;;4.64;88.51;101629.19;5081148;28;20695;-76
2021/11/10 08:52:28;;;;;;;9.13;8.43;;;;;;;4.71;88.09;101623.34;5081899;28;20230;-75
2021/11/10 08:54:54;;;;;;;10.50;9.60;;;;;;;4.78;88.26;101625.25;5082103;28;20632;-75
2021/11/10 08:57:23;;;;;;;9.63;8.87;;;;;;;4.82;88.49;101618.47;5081308;28;20242;-76
2021/11/10 08:59:49;;;;;;;12.77;11.07;;;;;;;4.89;88.81;101599.63;5081839;28;21272;-77
2021/11/10 09:02:15;;;;;;;11.27;10.13;;;;;;;4.96;88.74;101594.63;5081665;28;20420;-77
2021/11/10 09:04:42;;;;;;;11.03;10.13;;;;;;;5.01;88.90;101599.03;5082308;28;20383;-76
2021/11/10 09:07:08;;;;;;;10.07;8.37;;;;;;;5.06;88.35;101602.63;5080579;28;20209;-76
2021/11/10 09:09:36;;;;;;;7.97;6.40;;;;;;;5.11;88.67;101608.75;5081830;28;20202;-76
2021/11/10 09:12:02;;;;;;;8.83;7.93;;;;;;;5.06;89.01;101602.63;5081730;28;20207;-79
2021/11/10 09:14:30;;;;;;;8.33;7.53;;;;;;;5.11;88.91;101590.63;5083349;28;20203;-76
2021/11/10 09:16:57;;;;;;;8.07;7.40;;;;;;;5.14;89.24;101578.63;5082482;28;20711;-77
2021/11/10 09:19:24;;;;;;;8.43;7.63;;;;;;;5.34;92.10;101511.75;5081501;28;20239;-77
2021/11/10 09:21:50;;;;;;;9.20;8.30;;;;;;;5.44;92.80;101468.78;5081959;28;20302;-76
2021/11/10 09:24:16;;;;;;;7.77;7.17;;;;;;;5.49;91.85;101481.81;5081417;28;20287;-76
2021/11/10 09:26:43;;;;;;;9.03;8.23;;;;;;;5.57;92.37;101478.53;5081302;28;20697;-75
2021/11/10 09:29:10;;;;;;;10.77;9.87;;;;;;;5.83;94.32;101440.97;5081606;28;20215;-76
2021/11/10 09:31:38;;;;;;;9.47;8.00;;;;;;;5.95;93.51;101441.22;5082259;28;20203;-77
2021/11/10 09:34:08;;;;;;;8.67;7.87;;;;;;;6.10;92.64;101477.72;5082086;28;20501;-76
2021/11/10 09:36:38;;;;;;;13.40;12.30;;;;;;;6.22;93.65;101461.50;5081904;28;20262;-75
2021/11/10 09:39:05;;;;;;;10.97;9.97;;;;;;;6.33;92.69;101474.66;5080177;28;20759;-75
2021/11/10 09:41:31;;;;;;;10.43;9.37;;;;;;;6.38;92.25;101490.25;5081625;28;20231;-77
2021/11/10 09:43:59;;;;;;;11.07;9.93;;;;;;;6.47;92.26;101511.16;5081976;28;20261;-77
2021/11/10 09:46:26;;;;;;;10.03;9.20;;;;;;;6.56;92.11;101500.91;5081561;28;20211;-76
2021/11/10 09:48:57;;;;;;;11.97;10.97;;;;;;;6.51;91.38;101531.09;5083770;28;20260;-75
2021/11/10 09:51:23;;;;;;;14.87;13.57;;;;;;;6.55;91.04;101548.47;5085301;28;20207;-76
2021/11/10 09:53:50;;;;;;;11.80;10.10;;;;;;;6.68;91.74;101539.13;5084874;28;20235;-75
2021/11/10 09:56:16;;;;;;;13.53;12.07;;;;;;;6.78;91.70;101538.44;5085571;28;20717;-76
2021/11/10 09:58:46;;;;;;;13.17;11.23;;;;;;;6.85;91.33;101549.75;5085129;28;20575;-75
2021/11/10 10:01:12;;;;;;;11.27;10.17;;;;;;;6.94;90.73;101565.47;5085455;28;20210;-77
2021/11/10 10:03:39;;;;;;;10.97;9.90;;;;;;;6.91;90.38;101579.25;5084887;28;20288;-76
2021/11/10 10:06:07;;;;;;;8.73;7.83;;;;;;;6.99;88.71;101605.34;5086041;28;20284;-76
2021/11/10 10:08:34;;;;;;;8.93;8.23;;;;;;;7.05;89.09;101602.81;5084925;28;20207;-76
2021/11/10 10:11:00;;;;;;;9.93;7.57;;;;;;;7.15;90.12;101585.66;5085787;28;20474;-76
2021/11/10 10:13:27;;;;;;;8.70;7.97;;;;;;;7.20;89.58;101593.53;5085513;28;20276;-77
2021/11/10 10:15:53;;;;;;;7.83;7.07;;;;;;;7.12;89.36;101603.81;5085510;28;20297;-75
2021/11/10 10:18:22;;;;;;;7.43;6.83;;;;;;;7.06;88.81;101619.28;5084923;28;20685;-76
2021/11/10 10:20:53;;;;;;;8.37;7.57;;;;;;;7.00;87.84;101637.34;5085171;28;20461;-77
2021/11/10 10:23:23;;;;;;;10.37;7.23;;;;;;;6.67;90.66;101595.34;5085336;28;20322;-75
2021/11/10 10:25:51;;;;;;;8.50;6.77;;;;;;;6.79;91.14;101532.38;5085350;28;20211;-76
2021/11/10 10:28:22;;;;;;;7.87;7.13;;;;;;;6.92;91.47;101504.88;5084936;28;20274;-77
2021/11/10 10:30:52;;;;;;;8.10;7.50;;;;;;;6.89;90.83;101516.09;5085160;28;20247;-76
2021/11/10 10:33:21;;;;;;;7.00;6.30;;;;;;;7.01;91.22;101502.41;5084897;28;20251;-76
2021/11/10 10:35:49;;;;;;;7.50;6.70;;;;;;;7.00;91.29;101528.31;5084634;28;21106;-78
2021/11/10 10:38:18;;;;;;;7.17;6.57;;;;;;;6.89;90.71;101530.78;5084925;28;20248;-77
2021/11/10 10:40:47;;;;;;;7.33;6.60;;;;;;;6.86;91.41;101510.88;5085093;28;20204;-76
2021/11/10 10:43:15;;;;;;;7.37;6.73;;;;;;;6.94;91.73;101503.19;5084757;28;20753;-77
2021/11/10 10:45:44;;;;;;;7.00;6.40;;;;;;;7.05;92.06;101500.72;5084792;28;20755;-76
2021/11/10 10:48:13;;;;;;;5.80;5.30;;;;;;;7.09;90.95;101515.47;5084247;28;20273;-76
2021/11/10 10:50:46;;;;;;;6.33;5.73;;;;;;;7.21;90.51;101548.50;5085239;28;20211;-77
2021/11/10 10:53:13;;;;;;;5.17;4.67;;;;;;;7.35;90.79;101520.97;5084760;28;20231;-76
2021/11/10 10:55:42;;;;;;;5.10;4.60;;;;;;;7.38;89.33;101562.59;5084807;28;20725;-76
2021/11/10 10:58:13;;;;;;;4.30;3.90;;;;;;;7.42;86.86;101647.50;5084309;28;20218;-75
2021/11/10 11:00:41;;;;;;;5.97;4.17;;;;;;;7.47;84.65;101746.25;5083531;28;20574;-76
2021/11/10 11:03:24;;;;;;;5.33;4.03;;;;;;;7.58;84.96;101744.72;5085059;28;20228;-76
2021/11/10 11:05:51;;;;;;;4.03;3.50;;;;;;;7.66;82.79;101807.19;5084586;28;20247;-76
2021/11/10 11:08:33;;;;;;;6.17;3.33;;;;;;;7.84;82.32;101830.84;5084603;28;20200;-76
2021/11/10 11:11:00;;;;;;;3.73;3.43;;;;;;;8.03;81.65;101825.94;5085280;28;20204;-77
2021/11/10 11:13:46;;;;;;;4.90;3.47;;;;;;;8.00;80.01;101902.16;5084502;28;20228;-77
2021/11/10 11:16:12;;;;;;;4.33;3.23;;;;;;;8.09;79.75;101924.84;5084477;28;20223;-77
2021/11/10 11:18:39;;;;;;;5.80;3.70;;;;;;;8.13;80.09;101916.22;5083883;28;20207;-76
2021/11/10 11:21:24;;;;;;;3.87;3.57;;;;;;;8.18;79.20;101931.91;5084931;28;20580;-77
2021/11/10 11:23:53;;;;;;;4.27;3.50;;;;;;;8.27;76.71;101971.06;5083256;28;20288;-76
2021/11/10 11:26:34;;;;;;;3.63;3.30;;;;;;;8.41;74.21;102070.16;5084350;28;20808;-77
2021/11/10 11:29:19;;;;;;;3.40;3.10;;;;;;;8.58;75.18;102104.28;5083932;28;20261;-77
2021/11/10 11:31:46;;;;;;;3.40;3.03;;;;;;;8.80;74.87;102093.38;5083556;28;20204;-77